sensor_id;sensor_type;location;lat;lon;timestamp;P1;durP1;ratioP1;P2;durP2;ratioP2
23868;SDS011;12115;47.128;15.422;2022-08-20T00:01:09;8.73;;;3.75;;
23868;SDS011;12115;47.128;15.422;2022-08-20T00:03:37;9.38;;;3.30;;
23868;SDS011;12115;47.128;15.422;2022-08-20T00:06:11;8.45;;;3.88;;
23868;SDS011;12115;47.128;15.422;2022-08-20T00:08:41;11.00;;;3.40;;
23868;SDS011;12115;47.128;15.422;2022-08-20T00:11:10;8.27;;;3.20;;
23868;SDS011;12115;47.128;15.422;2022-08-20T00:13:41;7.38;;;2.92;;
23868;SDS011;12115;47.128;15.422;2022-08-20T00:16:11;14.93;;;3.40;;
23868;SDS011;12115;47.128;15.422;2022-08-20T00:18:40;5.50;;;3.65;;
23868;SDS011;12115;47.128;15.422;2022-08-20T00:21:10;7.07;;;3.60;;
23868;SDS011;12115;47.128;15.422;2022-08-20T00:23:45;8.80;;;3.42;;
23868;SDS011;12115;47.128;15.422;2022-08-20T00:26:14;12.75;;;3.70;;
23868;SDS011;12115;47.128;15.422;2022-08-20T00:28:41;9.70;;;3.88;;
23868;SDS011;12115;47.128;15.422;2022-08-20T00:31:09;7.85;;;3.13;;
23868;SDS011;12115;47.128;15.422;2022-08-20T00:33:38;9.32;;;3.60;;
23868;SDS011;12115;47.128;15.422;2022-08-20T00:36:05;8.32;;;3.30;;
23868;SDS011;12115;47.128;15.422;2022-08-20T00:38:36;9.40;;;3.88;;
23868;SDS011;12115;47.128;15.422;2022-08-20T00:41:06;11.98;;;3.55;;
23868;SDS011;12115;47.128;15.422;2022-08-20T00:43:45;9.60;;;3.38;;
23868;SDS011;12115;47.128;15.422;2022-08-20T00:46:31;12.85;;;3.75;;
23868;SDS011;12115;47.128;15.422;2022-08-20T00:48:59;10.57;;;3.90;;
23868;SDS011;12115;47.128;15.422;2022-08-20T00:54:06;10.82;;;3.75;;
23868;SDS011;12115;47.128;15.422;2022-08-20T00:57:04;6.47;;;3.40;;
23868;SDS011;12115;47.128;15.422;2022-08-20T00:59:35;9.82;;;3.38;;
23868;SDS011;12115;47.128;15.422;2022-08-20T01:02:07;11.35;;;3.97;;
23868;SDS011;12115;47.128;15.422;2022-08-20T01:04:37;7.25;;;3.50;;
23868;SDS011;12115;47.128;15.422;2022-08-20T01:07:05;7.90;;;3.42;;
23868;SDS011;12115;47.128;15.422;2022-08-20T01:09:33;9.45;;;3.40;;
23868;SDS011;12115;47.128;15.422;2022-08-20T01:12:23;6.90;;;3.53;;
23868;SDS011;12115;47.128;15.422;2022-08-20T01:14:51;9.70;;;3.22;;
23868;SDS011;12115;47.128;15.422;2022-08-20T01:17:19;10.18;;;3.20;;
23868;SDS011;12115;47.128;15.422;2022-08-20T01:19:51;9.13;;;3.17;;
23868;SDS011;12115;47.128;15.422;2022-08-20T01:22:30;8.30;;;3.50;;
23868;SDS011;12115;47.128;15.422;2022-08-20T01:28:52;9.57;;;3.45;;
23868;SDS011;12115;47.128;15.422;2022-08-20T01:31:23;8.43;;;4.10;;
23868;SDS011;12115;47.128;15.422;2022-08-20T01:33:53;9.68;;;3.40;;
23868;SDS011;12115;47.128;15.422;2022-08-20T01:36:23;9.90;;;3.15;;
23868;SDS011;12115;47.128;15.422;2022-08-20T01:38:57;10.35;;;3.58;;
23868;SDS011;12115;47.128;15.422;2022-08-20T01:44:18;7.05;;;3.30;;
23868;SDS011;12115;47.128;15.422;2022-08-20T01:46:46;9.35;;;3.33;;
23868;SDS011;12115;47.128;15.422;2022-08-20T01:49:17;8.57;;;3.40;;
23868;SDS011;12115;47.128;15.422;2022-08-20T01:51:49;13.07;;;3.55;;
23868;SDS011;12115;47.128;15.422;2022-08-20T01:54:18;11.75;;;4.00;;
23868;SDS011;12115;47.128;15.422;2022-08-20T01:56:51;9.52;;;3.83;;
23868;SDS011;12115;47.128;15.422;2022-08-20T01:59:22;10.65;;;3.30;;
23868;SDS011;12115;47.128;15.422;2022-08-20T02:01:49;10.57;;;3.83;;
23868;SDS011;12115;47.128;15.422;2022-08-20T02:04:17;8.90;;;3.10;;
23868;SDS011;12115;47.128;15.422;2022-08-20T02:06:51;10.95;;;3.30;;
23868;SDS011;12115;47.128;15.422;2022-08-20T02:09:28;8.35;;;3.05;;
23868;SDS011;12115;47.128;15.422;2022-08-20T02:11:58;10.48;;;3.47;;
23868;SDS011;12115;47.128;15.422;2022-08-20T02:14:26;8.23;;;3.10;;
23868;SDS011;12115;47.128;15.422;2022-08-20T02:16:53;9.82;;;3.60;;
23868;SDS011;12115;47.128;15.422;2022-08-20T02:22:19;13.82;;;3.50;;
23868;SDS011;12115;47.128;15.422;2022-08-20T02:24:56;7.88;;;3.42;;
23868;SDS011;12115;47.128;15.422;2022-08-20T02:27:23;8.45;;;3.42;;
23868;SDS011;12115;47.128;15.422;2022-08-20T02:29:51;8.23;;;3.20;;
23868;SDS011;12115;47.128;15.422;2022-08-20T02:32:19;7.82;;;3.30;;
23868;SDS011;12115;47.128;15.422;2022-08-20T02:34:59;8.65;;;3.08;;
23868;SDS011;12115;47.128;15.422;2022-08-20T02:37:29;8.30;;;3.10;;
23868;SDS011;12115;47.128;15.422;2022-08-20T02:39:56;9.65;;;3.70;;
23868;SDS011;12115;47.128;15.422;2022-08-20T02:42:24;7.72;;;2.90;;
23868;SDS011;12115;47.128;15.422;2022-08-20T02:44:52;7.57;;;2.92;;
23868;SDS011;12115;47.128;15.422;2022-08-20T02:47:19;8.95;;;2.72;;
23868;SDS011;12115;47.128;15.422;2022-08-20T02:49:46;5.75;;;3.05;;
23868;SDS011;12115;47.128;15.422;2022-08-20T02:52:13;7.88;;;3.20;;
23868;SDS011;12115;47.128;15.422;2022-08-20T02:54:40;7.55;;;3.25;;
23868;SDS011;12115;47.128;15.422;2022-08-20T02:57:14;9.90;;;3.15;;
23868;SDS011;12115;47.128;15.422;2022-08-20T02:59:42;10.05;;;3.13;;
23868;SDS011;12115;47.128;15.422;2022-08-20T03:02:10;10.43;;;3.53;;
23868;SDS011;12115;47.128;15.422;2022-08-20T03:04:38;6.78;;;3.20;;
23868;SDS011;12115;47.128;15.422;2022-08-20T03:07:05;5.05;;;2.63;;
23868;SDS011;12115;47.128;15.422;2022-08-20T03:09:32;13.38;;;3.35;;
23868;SDS011;12115;47.128;15.422;2022-08-20T03:11:59;9.95;;;4.10;;
23868;SDS011;12115;47.128;15.422;2022-08-20T03:14:28;7.35;;;3.00;;
23868;SDS011;12115;47.128;15.422;2022-08-20T03:16:55;6.80;;;3.00;;
23868;SDS011;12115;47.128;15.422;2022-08-20T03:19:22;6.15;;;2.67;;
23868;SDS011;12115;47.128;15.422;2022-08-20T03:21:49;6.28;;;2.70;;
23868;SDS011;12115;47.128;15.422;2022-08-20T03:24:17;7.53;;;2.95;;
23868;SDS011;12115;47.128;15.422;2022-08-20T03:26:44;6.57;;;3.33;;
23868;SDS011;12115;47.128;15.422;2022-08-20T03:29:11;8.88;;;3.10;;
23868;SDS011;12115;47.128;15.422;2022-08-20T03:31:39;8.60;;;3.63;;
23868;SDS011;12115;47.128;15.422;2022-08-20T03:34:06;8.48;;;3.53;;
23868;SDS011;12115;47.128;15.422;2022-08-20T03:36:33;8.77;;;3.45;;
23868;SDS011;12115;47.128;15.422;2022-08-20T03:39:00;5.05;;;3.17;;
23868;SDS011;12115;47.128;15.422;2022-08-20T03:41:30;9.05;;;2.92;;
23868;SDS011;12115;47.128;15.422;2022-08-20T03:43:57;9.18;;;3.05;;
23868;SDS011;12115;47.128;15.422;2022-08-20T03:46:24;9.63;;;3.22;;
23868;SDS011;12115;47.128;15.422;2022-08-20T03:48:52;7.13;;;3.58;;
23868;SDS011;12115;47.128;15.422;2022-08-20T03:51:29;9.95;;;3.33;;
23868;SDS011;12115;47.128;15.422;2022-08-20T03:54:18;8.63;;;3.30;;
23868;SDS011;12115;47.128;15.422;2022-08-20T03:56:45;13.60;;;3.50;;
23868;SDS011;12115;47.128;15.422;2022-08-20T03:59:13;7.88;;;3.22;;
23868;SDS011;12115;47.128;15.422;2022-08-20T04:01:40;7.15;;;3.40;;
23868;SDS011;12115;47.128;15.422;2022-08-20T04:04:12;6.78;;;3.63;;
23868;SDS011;12115;47.128;15.422;2022-08-20T04:06:40;6.57;;;3.10;;
23868;SDS011;12115;47.128;15.422;2022-08-20T04:09:08;8.20;;;3.58;;
23868;SDS011;12115;47.128;15.422;2022-08-20T04:11:37;10.68;;;3.38;;
23868;SDS011;12115;47.128;15.422;2022-08-20T04:14:05;6.45;;;3.38;;
23868;SDS011;12115;47.128;15.422;2022-08-20T04:16:34;5.70;;;3.38;;
23868;SDS011;12115;47.128;15.422;2022-08-20T04:19:03;6.45;;;2.85;;
23868;SDS011;12115;47.128;15.422;2022-08-20T04:21:30;6.45;;;3.13;;
23868;SDS011;12115;47.128;15.422;2022-08-20T04:23:59;7.93;;;3.70;;
23868;SDS011;12115;47.128;15.422;2022-08-20T04:26:28;7.20;;;3.35;;
23868;SDS011;12115;47.128;15.422;2022-08-20T04:28:56;9.95;;;3.22;;
23868;SDS011;12115;47.128;15.422;2022-08-20T04:31:23;6.97;;;2.92;;
23868;SDS011;12115;47.128;15.422;2022-08-20T04:33:51;7.20;;;3.13;;
23868;SDS011;12115;47.128;15.422;2022-08-20T04:36:18;5.15;;;2.50;;
23868;SDS011;12115;47.128;15.422;2022-08-20T04:38:45;6.93;;;3.90;;
23868;SDS011;12115;47.128;15.422;2022-08-20T04:41:20;6.00;;;3.00;;
23868;SDS011;12115;47.128;15.422;2022-08-20T04:43:49;8.55;;;4.07;;
23868;SDS011;12115;47.128;15.422;2022-08-20T04:46:19;5.47;;;3.17;;
23868;SDS011;12115;47.128;15.422;2022-08-20T04:48:47;6.63;;;3.10;;
23868;SDS011;12115;47.128;15.422;2022-08-20T04:51:16;10.35;;;3.42;;
23868;SDS011;12115;47.128;15.422;2022-08-20T04:53:44;9.23;;;3.50;;
23868;SDS011;12115;47.128;15.422;2022-08-20T04:56:18;8.30;;;3.80;;
23868;SDS011;12115;47.128;15.422;2022-08-20T04:58:49;9.93;;;3.75;;
23868;SDS011;12115;47.128;15.422;2022-08-20T05:01:18;9.52;;;3.58;;
23868;SDS011;12115;47.128;15.422;2022-08-20T05:03:45;5.60;;;3.28;;
23868;SDS011;12115;47.128;15.422;2022-08-20T05:06:13;7.47;;;2.97;;
23868;SDS011;12115;47.128;15.422;2022-08-20T05:08:41;6.28;;;3.25;;
23868;SDS011;12115;47.128;15.422;2022-08-20T05:11:09;9.10;;;3.30;;
23868;SDS011;12115;47.128;15.422;2022-08-20T05:13:57;6.25;;;3.00;;
23868;SDS011;12115;47.128;15.422;2022-08-20T05:16:24;8.95;;;3.10;;
23868;SDS011;12115;47.128;15.422;2022-08-20T05:18:52;7.53;;;3.53;;
23868;SDS011;12115;47.128;15.422;2022-08-20T05:21:19;5.10;;;2.78;;
23868;SDS011;12115;47.128;15.422;2022-08-20T05:23:46;9.70;;;3.33;;
23868;SDS011;12115;47.128;15.422;2022-08-20T05:26:15;8.85;;;3.38;;
23868;SDS011;12115;47.128;15.422;2022-08-20T05:28:45;6.40;;;3.27;;
23868;SDS011;12115;47.128;15.422;2022-08-20T05:31:25;5.68;;;3.53;;
23868;SDS011;12115;47.128;15.422;2022-08-20T05:34:03;10.68;;;4.18;;
23868;SDS011;12115;47.128;15.422;2022-08-20T05:36:41;7.57;;;3.92;;
23868;SDS011;12115;47.128;15.422;2022-08-20T05:39:12;7.68;;;3.40;;
23868;SDS011;12115;47.128;15.422;2022-08-20T05:41:40;9.57;;;3.92;;
23868;SDS011;12115;47.128;15.422;2022-08-20T05:44:08;5.97;;;3.25;;
23868;SDS011;12115;47.128;15.422;2022-08-20T05:46:39;10.57;;;3.35;;
23868;SDS011;12115;47.128;15.422;2022-08-20T05:49:09;11.95;;;3.53;;
23868;SDS011;12115;47.128;15.422;2022-08-20T05:51:38;8.05;;;3.40;;
23868;SDS011;12115;47.128;15.422;2022-08-20T05:54:06;10.73;;;4.13;;
23868;SDS011;12115;47.128;15.422;2022-08-20T05:56:33;7.97;;;4.00;;
23868;SDS011;12115;47.128;15.422;2022-08-20T05:59:01;6.20;;;2.67;;
23868;SDS011;12115;47.128;15.422;2022-08-20T06:01:30;7.57;;;3.40;;
23868;SDS011;12115;47.128;15.422;2022-08-20T06:03:59;7.25;;;3.38;;
23868;SDS011;12115;47.128;15.422;2022-08-20T06:06:45;7.55;;;3.33;;
23868;SDS011;12115;47.128;15.422;2022-08-20T06:09:17;5.10;;;2.97;;
23868;SDS011;12115;47.128;15.422;2022-08-20T06:12:01;11.43;;;4.03;;
23868;SDS011;12115;47.128;15.422;2022-08-20T06:14:31;8.65;;;4.20;;
23868;SDS011;12115;47.128;15.422;2022-08-20T06:17:06;9.05;;;3.97;;
23868;SDS011;12115;47.128;15.422;2022-08-20T06:19:39;9.75;;;3.83;;
23868;SDS011;12115;47.128;15.422;2022-08-20T06:22:10;10.05;;;3.80;;
23868;SDS011;12115;47.128;15.422;2022-08-20T06:24:48;6.57;;;3.33;;
23868;SDS011;12115;47.128;15.422;2022-08-20T06:27:15;5.53;;;2.72;;
23868;SDS011;12115;47.128;15.422;2022-08-20T06:29:43;8.80;;;3.80;;
23868;SDS011;12115;47.128;15.422;2022-08-20T06:32:10;6.93;;;3.70;;
23868;SDS011;12115;47.128;15.422;2022-08-20T06:34:37;7.55;;;2.95;;
23868;SDS011;12115;47.128;15.422;2022-08-20T06:37:15;7.60;;;3.20;;
23868;SDS011;12115;47.128;15.422;2022-08-20T06:39:45;5.07;;;3.25;;
23868;SDS011;12115;47.128;15.422;2022-08-20T06:42:12;6.95;;;3.42;;
23868;SDS011;12115;47.128;15.422;2022-08-20T06:44:46;11.20;;;3.17;;
23868;SDS011;12115;47.128;15.422;2022-08-20T06:47:16;6.10;;;3.03;;
23868;SDS011;12115;47.128;15.422;2022-08-20T06:49:44;7.57;;;3.63;;
23868;SDS011;12115;47.128;15.422;2022-08-20T06:52:13;7.63;;;3.30;;
23868;SDS011;12115;47.128;15.422;2022-08-20T06:54:43;8.85;;;3.47;;
23868;SDS011;12115;47.128;15.422;2022-08-20T06:57:11;7.25;;;3.47;;
23868;SDS011;12115;47.128;15.422;2022-08-20T06:59:38;4.93;;;3.08;;
23868;SDS011;12115;47.128;15.422;2022-08-20T07:02:05;6.13;;;3.20;;
23868;SDS011;12115;47.128;15.422;2022-08-20T07:04:33;7.65;;;2.72;;
23868;SDS011;12115;47.128;15.422;2022-08-20T07:07:00;5.90;;;2.47;;
23868;SDS011;12115;47.128;15.422;2022-08-20T07:09:27;5.10;;;2.92;;
23868;SDS011;12115;47.128;15.422;2022-08-20T07:11:54;5.85;;;2.80;;
23868;SDS011;12115;47.128;15.422;2022-08-20T07:14:22;5.25;;;2.85;;
23868;SDS011;12115;47.128;15.422;2022-08-20T07:16:49;9.63;;;3.00;;
23868;SDS011;12115;47.128;15.422;2022-08-20T07:19:16;6.88;;;2.72;;
23868;SDS011;12115;47.128;15.422;2022-08-20T07:21:43;6.57;;;2.58;;
23868;SDS011;12115;47.128;15.422;2022-08-20T07:24:10;5.55;;;2.85;;
23868;SDS011;12115;47.128;15.422;2022-08-20T07:26:38;6.82;;;2.60;;
23868;SDS011;12115;47.128;15.422;2022-08-20T07:29:05;6.15;;;2.80;;
23868;SDS011;12115;47.128;15.422;2022-08-20T07:31:32;6.88;;;2.53;;
23868;SDS011;12115;47.128;15.422;2022-08-20T07:34:18;5.30;;;2.38;;
23868;SDS011;12115;47.128;15.422;2022-08-20T07:36:45;7.13;;;2.42;;
23868;SDS011;12115;47.128;15.422;2022-08-20T07:39:14;7.35;;;2.75;;
23868;SDS011;12115;47.128;15.422;2022-08-20T07:41:42;5.05;;;1.80;;
23868;SDS011;12115;47.128;15.422;2022-08-20T07:44:21;4.13;;;1.90;;
23868;SDS011;12115;47.128;15.422;2022-08-20T07:46:59;5.85;;;2.20;;
23868;SDS011;12115;47.128;15.422;2022-08-20T07:51:55;3.33;;;2.05;;
23868;SDS011;12115;47.128;15.422;2022-08-20T07:54:22;2.20;;;1.10;;
23868;SDS011;12115;47.128;15.422;2022-08-20T07:56:49;1.70;;;1.10;;
23868;SDS011;12115;47.128;15.422;2022-08-20T07:59:16;1.70;;;0.80;;
23868;SDS011;12115;47.128;15.422;2022-08-20T08:01:45;1.08;;;0.50;;
23868;SDS011;12115;47.128;15.422;2022-08-20T08:04:13;0.82;;;0.60;;
23868;SDS011;12115;47.128;15.422;2022-08-20T08:06:41;1.02;;;0.57;;
23868;SDS011;12115;47.128;15.422;2022-08-20T08:09:11;3.63;;;0.65;;
23868;SDS011;12115;47.128;15.422;2022-08-20T08:11:40;1.05;;;0.43;;
23868;SDS011;12115;47.128;15.422;2022-08-20T08:14:17;0.30;;;0.30;;
23868;SDS011;12115;47.128;15.422;2022-08-20T08:16:49;1.45;;;0.50;;
23868;SDS011;12115;47.128;15.422;2022-08-20T08:19:18;1.10;;;0.50;;
23868;SDS011;12115;47.128;15.422;2022-08-20T08:21:45;1.15;;;0.55;;
23868;SDS011;12115;47.128;15.422;2022-08-20T08:24:12;0.63;;;0.45;;
23868;SDS011;12115;47.128;15.422;2022-08-20T08:26:47;1.25;;;0.50;;
23868;SDS011;12115;47.128;15.422;2022-08-20T08:29:15;0.98;;;0.47;;
23868;SDS011;12115;47.128;15.422;2022-08-20T08:31:43;1.58;;;0.52;;
23868;SDS011;12115;47.128;15.422;2022-08-20T08:34:10;4.25;;;0.60;;
23868;SDS011;12115;47.128;15.422;2022-08-20T08:36:38;1.75;;;0.50;;
23868;SDS011;12115;47.128;15.422;2022-08-20T08:39:05;1.73;;;0.63;;
23868;SDS011;12115;47.128;15.422;2022-08-20T08:41:43;1.38;;;0.60;;
23868;SDS011;12115;47.128;15.422;2022-08-20T08:46:56;0.63;;;0.30;;
23868;SDS011;12115;47.128;15.422;2022-08-20T08:49:28;3.28;;;0.38;;
23868;SDS011;12115;47.128;15.422;2022-08-20T08:52:10;0.77;;;0.30;;
23868;SDS011;12115;47.128;15.422;2022-08-20T08:54:46;0.50;;;0.10;;
23868;SDS011;12115;47.128;15.422;2022-08-20T08:57:26;1.15;;;0.40;;
23868;SDS011;12115;47.128;15.422;2022-08-20T09:00:04;0.88;;;0.43;;
23868;SDS011;12115;47.128;15.422;2022-08-20T09:02:39;0.70;;;0.50;;
23868;SDS011;12115;47.128;15.422;2022-08-20T09:05:21;0.90;;;0.40;;
23868;SDS011;12115;47.128;15.422;2022-08-20T09:07:52;0.40;;;0.30;;
23868;SDS011;12115;47.128;15.422;2022-08-20T09:10:21;1.45;;;0.30;;
23868;SDS011;12115;47.128;15.422;2022-08-20T09:12:50;3.10;;;0.68;;
23868;SDS011;12115;47.128;15.422;2022-08-20T09:15:18;0.65;;;0.40;;
23868;SDS011;12115;47.128;15.422;2022-08-20T09:17:46;0.98;;;0.40;;
23868;SDS011;12115;47.128;15.422;2022-08-20T09:20:14;0.50;;;0.30;;
23868;SDS011;12115;47.128;15.422;2022-08-20T09:22:41;3.00;;;0.40;;
23868;SDS011;12115;47.128;15.422;2022-08-20T09:25:08;1.40;;;0.40;;
23868;SDS011;12115;47.128;15.422;2022-08-20T09:27:35;0.73;;;0.40;;
23868;SDS011;12115;47.128;15.422;2022-08-20T09:30:06;0.40;;;0.38;;
23868;SDS011;12115;47.128;15.422;2022-08-20T09:32:36;0.57;;;0.40;;
23868;SDS011;12115;47.128;15.422;2022-08-20T09:35:03;0.68;;;0.40;;
23868;SDS011;12115;47.128;15.422;2022-08-20T09:37:34;1.15;;;0.30;;
23868;SDS011;12115;47.128;15.422;2022-08-20T09:40:03;0.85;;;0.40;;
23868;SDS011;12115;47.128;15.422;2022-08-20T09:42:33;2.72;;;0.40;;
23868;SDS011;12115;47.128;15.422;2022-08-20T09:45:07;1.85;;;0.50;;
23868;SDS011;12115;47.128;15.422;2022-08-20T09:47:37;1.05;;;0.20;;
23868;SDS011;12115;47.128;15.422;2022-08-20T09:50:20;1.38;;;0.30;;
23868;SDS011;12115;47.128;15.422;2022-08-20T09:52:49;3.13;;;0.20;;
23868;SDS011;12115;47.128;15.422;2022-08-20T09:57:52;1.58;;;0.30;;
23868;SDS011;12115;47.128;15.422;2022-08-20T10:00:19;2.13;;;0.30;;
23868;SDS011;12115;47.128;15.422;2022-08-20T10:02:47;0.13;;;0.13;;
23868;SDS011;12115;47.128;15.422;2022-08-20T10:05:15;4.00;;;0.40;;
23868;SDS011;12115;47.128;15.422;2022-08-20T10:07:42;0.40;;;0.30;;
23868;SDS011;12115;47.128;15.422;2022-08-20T10:10:11;1.42;;;0.40;;
23868;SDS011;12115;47.128;15.422;2022-08-20T10:12:39;0.82;;;0.30;;
23868;SDS011;12115;47.128;15.422;2022-08-20T10:15:07;4.00;;;0.30;;
23868;SDS011;12115;47.128;15.422;2022-08-20T10:17:36;0.20;;;0.20;;
23868;SDS011;12115;47.128;15.422;2022-08-20T10:20:05;0.82;;;0.25;;
23868;SDS011;12115;47.128;15.422;2022-08-20T10:22:34;1.42;;;0.30;;
23868;SDS011;12115;47.128;15.422;2022-08-20T10:25:02;0.10;;;0.10;;
23868;SDS011;12115;47.128;15.422;2022-08-20T10:27:30;0.75;;;0.20;;
23868;SDS011;12115;47.128;15.422;2022-08-20T10:29:57;2.20;;;0.63;;
23868;SDS011;12115;47.128;15.422;2022-08-20T10:32:24;1.02;;;0.35;;
23868;SDS011;12115;47.128;15.422;2022-08-20T10:34:51;0.93;;;0.40;;
23868;SDS011;12115;47.128;15.422;2022-08-20T10:37:22;4.18;;;0.80;;
23868;SDS011;12115;47.128;15.422;2022-08-20T10:39:51;3.95;;;0.68;;
23868;SDS011;12115;47.128;15.422;2022-08-20T10:42:19;1.80;;;0.52;;
23868;SDS011;12115;47.128;15.422;2022-08-20T10:44:46;2.35;;;0.60;;
23868;SDS011;12115;47.128;15.422;2022-08-20T10:49:48;1.65;;;0.52;;
23868;SDS011;12115;47.128;15.422;2022-08-20T10:52:16;4.68;;;0.80;;
23868;SDS011;12115;47.128;15.422;2022-08-20T10:54:44;3.50;;;0.63;;
23868;SDS011;12115;47.128;15.422;2022-08-20T10:57:12;3.85;;;3.22;;
23868;SDS011;12115;47.128;15.422;2022-08-20T10:59:42;4.97;;;2.13;;
23868;SDS011;12115;47.128;15.422;2022-08-20T11:02:11;1.65;;;1.30;;
23868;SDS011;12115;47.128;15.422;2022-08-20T11:04:38;2.00;;;1.55;;
23868;SDS011;12115;47.128;15.422;2022-08-20T11:07:19;2.75;;;1.48;;
23868;SDS011;12115;47.128;15.422;2022-08-20T11:10:18;2.17;;;0.45;;
23868;SDS011;12115;47.128;15.422;2022-08-20T11:12:45;2.60;;;1.65;;
23868;SDS011;12115;47.128;15.422;2022-08-20T11:15:13;0.73;;;0.63;;
23868;SDS011;12115;47.128;15.422;2022-08-20T11:17:41;0.20;;;0.20;;
23868;SDS011;12115;47.128;15.422;2022-08-20T11:20:10;1.33;;;0.30;;
23868;SDS011;12115;47.128;15.422;2022-08-20T11:22:39;1.23;;;0.32;;
23868;SDS011;12115;47.128;15.422;2022-08-20T11:25:06;1.30;;;0.30;;
23868;SDS011;12115;47.128;15.422;2022-08-20T11:27:35;1.30;;;0.55;;
23868;SDS011;12115;47.128;15.422;2022-08-20T11:30:06;0.88;;;0.52;;
23868;SDS011;12115;47.128;15.422;2022-08-20T11:32:42;1.75;;;0.40;;
23868;SDS011;12115;47.128;15.422;2022-08-20T11:35:09;1.65;;;0.20;;
23868;SDS011;12115;47.128;15.422;2022-08-20T11:37:56;0.70;;;0.30;;
23868;SDS011;12115;47.128;15.422;2022-08-20T11:40:25;1.52;;;0.20;;
23868;SDS011;12115;47.128;15.422;2022-08-20T11:42:54;0.50;;;0.28;;
23868;SDS011;12115;47.128;15.422;2022-08-20T11:45:40;0.65;;;0.20;;
23868;SDS011;12115;47.128;15.422;2022-08-20T11:48:08;1.45;;;0.10;;
23868;SDS011;12115;47.128;15.422;2022-08-20T11:50:35;0.85;;;0.30;;
23868;SDS011;12115;47.128;15.422;2022-08-20T11:53:03;0.20;;;0.10;;
23868;SDS011;12115;47.128;15.422;2022-08-20T11:55:30;1.33;;;0.20;;
23868;SDS011;12115;47.128;15.422;2022-08-20T11:57:58;1.10;;;0.40;;
23868;SDS011;12115;47.128;15.422;2022-08-20T12:00:26;0.63;;;0.30;;
23868;SDS011;12115;47.128;15.422;2022-08-20T12:02:59;2.38;;;0.38;;
23868;SDS011;12115;47.128;15.422;2022-08-20T12:05:27;1.98;;;0.20;;
23868;SDS011;12115;47.128;15.422;2022-08-20T12:08:00;1.08;;;0.30;;
23868;SDS011;12115;47.128;15.422;2022-08-20T12:10:28;0.70;;;0.10;;
23868;SDS011;12115;47.128;15.422;2022-08-20T12:12:56;0.10;;;0.10;;
23868;SDS011;12115;47.128;15.422;2022-08-20T12:15:23;2.45;;;0.20;;
23868;SDS011;12115;47.128;15.422;2022-08-20T12:17:52;0.17;;;0.10;;
23868;SDS011;12115;47.128;15.422;2022-08-20T12:20:20;0.10;;;0.10;;
23868;SDS011;12115;47.128;15.422;2022-08-20T12:22:48;0.20;;;0.10;;
23868;SDS011;12115;47.128;15.422;2022-08-20T12:25:15;0.35;;;0.15;;
23868;SDS011;12115;47.128;15.422;2022-08-20T12:27:42;1.65;;;0.10;;
23868;SDS011;12115;47.128;15.422;2022-08-20T12:30:12;1.23;;;0.20;;
23868;SDS011;12115;47.128;15.422;2022-08-20T12:32:42;0.55;;;0.10;;
23868;SDS011;12115;47.128;15.422;2022-08-20T12:35:11;0.98;;;0.20;;
23868;SDS011;12115;47.128;15.422;2022-08-20T12:37:39;0.10;;;0.10;;
23868;SDS011;12115;47.128;15.422;2022-08-20T12:40:11;0.10;;;0.10;;
23868;SDS011;12115;47.128;15.422;2022-08-20T12:42:40;0.50;;;0.20;;
23868;SDS011;12115;47.128;15.422;2022-08-20T12:45:08;0.60;;;0.30;;
23868;SDS011;12115;47.128;15.422;2022-08-20T12:47:37;0.35;;;0.10;;
23868;SDS011;12115;47.128;15.422;2022-08-20T12:50:11;0.20;;;0.10;;
23868;SDS011;12115;47.128;15.422;2022-08-20T12:52:41;0.10;;;0.10;;
23868;SDS011;12115;47.128;15.422;2022-08-20T12:55:09;0.10;;;0.10;;
23868;SDS011;12115;47.128;15.422;2022-08-20T12:57:39;1.27;;;0.10;;
23868;SDS011;12115;47.128;15.422;2022-08-20T13:00:13;0.00;;;0.00;;
23868;SDS011;12115;47.128;15.422;2022-08-20T13:03:03;0.93;;;0.10;;
23868;SDS011;12115;47.128;15.422;2022-08-20T13:05:31;0.45;;;0.17;;
23868;SDS011;12115;47.128;15.422;2022-08-20T13:08:01;1.98;;;0.10;;
23868;SDS011;12115;47.128;15.422;2022-08-20T13:10:33;0.00;;;0.00;;
23868;SDS011;12115;47.128;15.422;2022-08-20T13:13:02;1.40;;;0.00;;
23868;SDS011;12115;47.128;15.422;2022-08-20T13:15:30;0.20;;;0.08;;
23868;SDS011;12115;47.128;15.422;2022-08-20T13:17:59;0.10;;;0.05;;
23868;SDS011;12115;47.128;15.422;2022-08-20T13:20:28;0.00;;;0.00;;
23868;SDS011;12115;47.128;15.422;2022-08-20T13:23:00;0.00;;;0.00;;
23868;SDS011;12115;47.128;15.422;2022-08-20T13:25:28;0.00;;;0.00;;
23868;SDS011;12115;47.128;15.422;2022-08-20T13:28:00;0.20;;;0.10;;
23868;SDS011;12115;47.128;15.422;2022-08-20T13:30:30;1.92;;;0.00;;
23868;SDS011;12115;47.128;15.422;2022-08-20T13:32:58;0.00;;;0.00;;
23868;SDS011;12115;47.128;15.422;2022-08-20T13:35:25;0.00;;;0.00;;
23868;SDS011;12115;47.128;15.422;2022-08-20T13:37:53;0.15;;;0.00;;
23868;SDS011;12115;47.128;15.422;2022-08-20T13:40:20;0.10;;;0.00;;
23868;SDS011;12115;47.128;15.422;2022-08-20T13:42:47;0.00;;;0.00;;
23868;SDS011;12115;47.128;15.422;2022-08-20T13:45:14;0.00;;;0.00;;
23868;SDS011;12115;47.128;15.422;2022-08-20T13:47:41;0.00;;;0.00;;
23868;SDS011;12115;47.128;15.422;2022-08-20T13:50:11;0.00;;;0.00;;
23868;SDS011;12115;47.128;15.422;2022-08-20T13:52:42;0.17;;;0.08;;
23868;SDS011;12115;47.128;15.422;2022-08-20T13:55:12;0.00;;;0.00;;
23868;SDS011;12115;47.128;15.422;2022-08-20T13:57:44;0.15;;;0.00;;
23868;SDS011;12115;47.128;15.422;2022-08-20T14:00:14;0.00;;;0.00;;
23868;SDS011;12115;47.128;15.422;2022-08-20T14:02:56;0.10;;;0.00;;
23868;SDS011;12115;47.128;15.422;2022-08-20T14:05:25;1.27;;;0.00;;
23868;SDS011;12115;47.128;15.422;2022-08-20T14:07:52;3.33;;;0.00;;
23868;SDS011;12115;47.128;15.422;2022-08-20T14:10:21;0.20;;;0.03;;
23868;SDS011;12115;47.128;15.422;2022-08-20T14:12:51;0.00;;;0.00;;
23868;SDS011;12115;47.128;15.422;2022-08-20T14:15:18;0.00;;;0.00;;
23868;SDS011;12115;47.128;15.422;2022-08-20T14:17:50;0.40;;;0.10;;
23868;SDS011;12115;47.128;15.422;2022-08-20T14:20:19;1.65;;;0.00;;
23868;SDS011;12115;47.128;15.422;2022-08-20T14:22:49;0.55;;;0.10;;
23868;SDS011;12115;47.128;15.422;2022-08-20T14:25:17;0.10;;;0.10;;
23868;SDS011;12115;47.128;15.422;2022-08-20T14:27:45;0.00;;;0.00;;
23868;SDS011;12115;47.128;15.422;2022-08-20T14:30:14;0.00;;;0.00;;
23868;SDS011;12115;47.128;15.422;2022-08-20T14:32:43;0.10;;;0.10;;
23868;SDS011;12115;47.128;15.422;2022-08-20T14:35:11;1.02;;;0.20;;
23868;SDS011;12115;47.128;15.422;2022-08-20T14:37:42;0.00;;;0.00;;
23868;SDS011;12115;47.128;15.422;2022-08-20T14:40:14;0.10;;;0.10;;
23868;SDS011;12115;47.128;15.422;2022-08-20T14:42:42;1.80;;;0.10;;
23868;SDS011;12115;47.128;15.422;2022-08-20T14:45:16;0.43;;;0.10;;
23868;SDS011;12115;47.128;15.422;2022-08-20T14:47:45;0.13;;;0.10;;
23868;SDS011;12115;47.128;15.422;2022-08-20T14:50:26;0.10;;;0.10;;
23868;SDS011;12115;47.128;15.422;2022-08-20T14:52:56;0.20;;;0.20;;
23868;SDS011;12115;47.128;15.422;2022-08-20T14:55:26;0.10;;;0.10;;
23868;SDS011;12115;47.128;15.422;2022-08-20T14:57:56;0.10;;;0.10;;
23868;SDS011;12115;47.128;15.422;2022-08-20T15:00:27;0.20;;;0.10;;
23868;SDS011;12115;47.128;15.422;2022-08-20T15:02:55;0.10;;;0.10;;
23868;SDS011;12115;47.128;15.422;2022-08-20T15:05:23;0.65;;;0.10;;
23868;SDS011;12115;47.128;15.422;2022-08-20T15:07:50;0.05;;;0.05;;
23868;SDS011;12115;47.128;15.422;2022-08-20T15:10:28;0.10;;;0.10;;
23868;SDS011;12115;47.128;15.422;2022-08-20T15:12:57;2.03;;;0.28;;